createdAt,value
2018-04-26T00:02:02.580Z,11.70
2018-04-26T00:04:30.771Z,11.60
2018-04-26T00:06:58.197Z,11.60
2018-04-26T00:09:26.410Z,11.60
2018-04-26T00:11:53.824Z,11.60
2018-04-26T00:14:21.255Z,11.40
2018-04-26T00:16:48.681Z,11.40
2018-04-26T00:19:16.126Z,11.40
2018-04-26T00:21:43.555Z,11.40
2018-04-26T00:24:10.983Z,11.50
2018-04-26T00:26:38.410Z,11.40
2018-04-26T00:29:05.864Z,11.40
2018-04-26T00:31:33.275Z,11.30
2018-04-26T00:34:01.488Z,11.30
2018-04-26T00:36:28.902Z,11.30
2018-04-26T00:38:57.106Z,11.30
2018-04-26T00:41:24.525Z,11.20
2018-04-26T00:43:51.958Z,11.30
2018-04-26T00:46:19.389Z,11.30
2018-04-26T00:48:46.832Z,11.30
2018-04-26T00:51:14.255Z,11.30
2018-04-26T00:53:42.457Z,11.30
2018-04-26T00:56:09.930Z,11.30
2018-04-26T00:58:37.381Z,11.20
2018-04-26T01:01:04.807Z,11.20
2018-04-26T01:03:33.013Z,11.30
2018-04-26T01:06:00.458Z,11.20
2018-04-26T01:08:27.880Z,11.30
2018-04-26T01:10:55.315Z,11.40
2018-04-26T01:13:22.738Z,11.40
2018-04-26T01:15:50.938Z,11.40
2018-04-26T01:18:18.775Z,11.40
2018-04-26T01:20:46.218Z,11.40
2018-04-26T01:23:13.642Z,11.40
2018-04-26T01:25:41.847Z,11.40
2018-04-26T01:28:09.273Z,11.40
2018-04-26T01:30:36.702Z,11.40
2018-04-26T01:33:04.135Z,11.40
2018-04-26T01:35:32.410Z,11.30
2018-04-26T01:37:59.842Z,11.30
2018-04-26T01:40:27.279Z,11.30
2018-04-26T01:42:55.491Z,11.30
2018-04-26T01:45:22.931Z,11.30
2018-04-26T01:47:50.363Z,11.30
2018-04-26T01:50:18.559Z,11.20
2018-04-26T01:52:45.983Z,11.20
2018-04-26T01:55:13.411Z,11.10
2018-04-26T01:57:40.843Z,11.10
2018-04-26T02:00:08.278Z,11.10
2018-04-26T02:02:35.707Z,11.10
2018-04-26T02:05:03.187Z,11.00
2018-04-26T02:07:31.384Z,10.90
2018-04-26T02:09:58.814Z,10.80
2018-04-26T02:12:26.235Z,10.80
2018-04-26T02:14:53.679Z,10.80
2018-04-26T02:17:21.123Z,10.80
2018-04-26T02:19:48.565Z,10.80
2018-04-26T02:22:16.001Z,10.90
2018-04-26T02:24:43.427Z,10.80
2018-04-26T02:27:10.862Z,10.70
2018-04-26T02:29:38.288Z,10.70
2018-04-26T02:32:05.718Z,10.60
2018-04-26T02:34:33.143Z,10.60
2018-04-26T02:37:00.578Z,10.50
2018-04-26T02:39:28.007Z,10.60
2018-04-26T02:41:55.442Z,10.50
2018-04-26T02:44:22.873Z,10.50
2018-04-26T02:46:50.306Z,10.50
2018-04-26T02:49:17.730Z,10.50
2018-04-26T02:51:45.188Z,10.60
2018-04-26T02:54:12.614Z,10.60
2018-04-26T02:56:40.816Z,10.50
2018-04-26T02:59:08.242Z,10.50
2018-04-26T03:01:36.447Z,10.50
2018-04-26T03:04:03.876Z,10.50
2018-04-26T03:06:32.075Z,10.50
2018-04-26T03:08:59.511Z,10.50
2018-04-26T03:11:26.938Z,10.50
2018-04-26T03:13:54.374Z,10.50
2018-04-26T03:16:21.799Z,10.60
2018-04-26T03:18:49.238Z,10.60
2018-04-26T03:21:16.663Z,10.60
2018-04-26T03:23:44.094Z,10.60
2018-04-26T03:26:11.521Z,10.50
2018-04-26T03:28:38.961Z,10.50
2018-04-26T03:31:06.416Z,10.60
2018-04-26T03:33:34.605Z,10.60
2018-04-26T03:36:02.039Z,10.60
2018-04-26T03:38:29.475Z,10.60
2018-04-26T03:40:57.676Z,10.60
2018-04-26T03:43:25.106Z,10.60
2018-04-26T03:45:52.531Z,10.60
2018-04-26T03:48:19.991Z,10.60
2018-04-26T03:50:47.416Z,10.50
2018-04-26T03:53:14.859Z,10.40
2018-04-26T03:55:42.290Z,10.40
2018-04-26T03:58:10.486Z,10.40
2018-04-26T04:00:49.762Z,10.40
2018-04-26T04:03:29.184Z,10.40
2018-04-26T04:08:53.463Z,10.50
2018-04-26T04:11:20.893Z,10.50
2018-04-26T04:13:49.105Z,10.60
2018-04-26T04:16:16.532Z,10.50
2018-04-26T04:18:44.735Z,10.50
2018-04-26T04:21:12.189Z,10.50
2018-04-26T04:23:39.631Z,10.50
2018-04-26T04:26:07.058Z,10.50
2018-04-26T04:28:35.269Z,10.50
2018-04-26T04:31:02.888Z,10.50
2018-04-26T04:33:30.306Z,10.60
2018-04-26T04:35:57.766Z,10.60
2018-04-26T04:38:25.228Z,10.60
2018-04-26T04:40:52.662Z,10.70
2018-04-26T04:43:20.094Z,10.70
2018-04-26T04:45:47.522Z,10.60
2018-04-26T04:48:14.955Z,10.70
2018-04-26T04:50:42.399Z,10.70
2018-04-26T04:53:09.832Z,10.60
2018-04-26T04:55:37.254Z,10.60
2018-04-26T04:58:05.473Z,10.60
2018-04-26T05:00:32.921Z,10.60
2018-04-26T05:03:00.347Z,10.60
2018-04-26T05:05:28.557Z,10.70
2018-04-26T05:07:55.970Z,10.70
2018-04-26T05:10:24.183Z,10.70
2018-04-26T05:12:51.609Z,10.70
2018-04-26T05:15:19.815Z,10.80
2018-04-26T05:17:47.242Z,10.80
2018-04-26T05:20:14.678Z,10.80
2018-04-26T05:22:42.106Z,10.90
2018-04-26T05:25:09.556Z,11.10
2018-04-26T05:27:36.992Z,11.20
2018-04-26T05:30:04.470Z,11.40
2018-04-26T05:32:31.860Z,11.40
2018-04-26T05:34:59.296Z,11.30
2018-04-26T05:37:26.722Z,11.20
2018-04-26T05:39:54.171Z,11.10
2018-04-26T05:42:21.598Z,12.60
2018-04-26T05:44:49.803Z,13.70
2018-04-26T05:47:17.254Z,14.70
2018-04-26T05:49:44.677Z,14.70
2018-04-26T05:52:12.098Z,15.20
2018-04-26T05:54:39.525Z,16.50
2018-04-26T05:57:06.964Z,16.50
2018-04-26T05:59:34.394Z,16.50
2018-04-26T06:02:03.801Z,17.10
2018-04-26T06:04:32.015Z,16.30
2018-04-26T06:06:59.460Z,16.30
2018-04-26T06:09:26.881Z,17.10
2018-04-26T06:11:55.132Z,18.10
2018-04-26T06:14:22.564Z,18.10
2018-04-26T06:16:50.062Z,17.30
2018-04-26T06:19:17.442Z,17.60
2018-04-26T06:21:44.879Z,17.10
2018-04-26T06:24:13.084Z,17.80
2018-04-26T06:26:40.521Z,17.80
2018-04-26T06:29:08.727Z,16.60
2018-04-26T06:31:36.189Z,16.50
2018-04-26T06:34:03.611Z,17.00
2018-04-26T06:36:31.818Z,17.20
2018-04-26T06:38:59.250Z,17.20
2018-04-26T06:41:26.686Z,15.50
2018-04-26T06:43:54.882Z,16.60
2018-04-26T06:46:22.319Z,16.60
2018-04-26T06:48:50.511Z,14.20
2018-04-26T06:51:17.947Z,14.20
2018-04-26T06:53:45.365Z,13.70
2018-04-26T06:56:12.810Z,13.70
2018-04-26T06:58:40.244Z,13.40
2018-04-26T07:01:07.665Z,13.30
2018-04-26T07:03:35.870Z,12.90
2018-04-26T07:06:03.307Z,12.90
2018-04-26T07:08:30.798Z,12.60
2018-04-26T07:10:58.243Z,12.60
2018-04-26T07:13:25.678Z,12.30
2018-04-26T07:15:53.111Z,12.20
2018-04-26T07:18:20.544Z,12.40
2018-04-26T07:20:47.970Z,12.40
2018-04-26T07:23:15.404Z,12.40
2018-04-26T07:25:42.829Z,12.40
2018-04-26T07:28:10.261Z,12.40
2018-04-26T07:30:37.695Z,12.20
2018-04-26T07:33:05.135Z,12.10
2018-04-26T07:35:32.568Z,11.90
2018-04-26T07:38:00.763Z,11.80
2018-04-26T07:40:28.194Z,11.80
2018-04-26T07:42:55.618Z,11.70
2018-04-26T07:45:23.048Z,11.70
2018-04-26T07:47:50.476Z,11.60
2018-04-26T07:50:17.909Z,11.50
2018-04-26T07:52:45.472Z,11.70
2018-04-26T07:55:12.904Z,11.80
2018-04-26T07:57:40.335Z,11.90
2018-04-26T08:00:07.785Z,11.80
2018-04-26T08:02:35.241Z,11.80
2018-04-26T08:05:02.672Z,11.70
2018-04-26T08:07:30.098Z,11.80
2018-04-26T08:09:57.535Z,11.80
2018-04-26T08:12:24.966Z,11.30
2018-04-26T08:14:52.424Z,11.30
2018-04-26T08:17:19.858Z,11.10
2018-04-26T08:19:47.290Z,11.20
2018-04-26T08:22:15.486Z,11.20
2018-04-26T08:24:42.923Z,11.40
2018-04-26T08:27:11.133Z,11.30
2018-04-26T08:29:38.962Z,11.40
2018-04-26T08:32:07.167Z,11.50
2018-04-26T08:34:34.594Z,11.30
2018-04-26T08:37:02.789Z,11.50
2018-04-26T08:39:30.615Z,11.40
2018-04-26T08:41:58.042Z,11.40
2018-04-26T08:44:25.484Z,11.40
2018-04-26T08:46:52.903Z,11.40
2018-04-26T08:49:21.109Z,11.50
2018-04-26T08:51:48.535Z,11.70
2018-04-26T08:54:16.747Z,11.70
2018-04-26T08:56:44.188Z,11.70
2018-04-26T08:59:11.619Z,12.10
2018-04-26T09:01:39.817Z,12.10
2018-04-26T09:04:07.247Z,12.30
2018-04-26T09:06:35.441Z,12.20
2018-04-26T09:09:02.865Z,12.20
2018-04-26T09:11:31.066Z,12.10
2018-04-26T09:13:58.494Z,12.20
2018-04-26T09:16:26.700Z,12.20
2018-04-26T09:18:54.126Z,12.20
2018-04-26T09:21:21.955Z,12.40
2018-04-26T09:23:50.517Z,13.10
2018-04-26T09:26:17.942Z,14.40
2018-04-26T09:28:46.145Z,15.50
2018-04-26T09:31:13.578Z,15.00
2018-04-26T09:33:41.007Z,16.60
2018-04-26T09:36:08.442Z,17.20
2018-04-26T09:38:35.871Z,18.10
2018-04-26T09:41:03.320Z,16.50
2018-04-26T09:43:30.743Z,15.60
2018-04-26T09:45:58.938Z,15.00
2018-04-26T09:48:26.362Z,14.30
2018-04-26T09:50:54.595Z,14.40
2018-04-26T09:53:22.049Z,15.20
2018-04-26T09:55:49.484Z,17.10
2018-04-26T09:58:16.911Z,17.10
2018-04-26T10:00:45.124Z,16.00
2018-04-26T10:03:12.549Z,15.90
2018-04-26T10:05:41.517Z,18.30
2018-04-26T10:08:08.954Z,18.30
2018-04-26T10:10:36.394Z,16.00
2018-04-26T10:13:03.828Z,16.50
2018-04-26T10:15:34.203Z,16.90
2018-04-26T10:18:10.767Z,17.10
2018-04-26T10:20:38.361Z,16.20
2018-04-26T10:23:07.261Z,17.90
2018-04-26T10:25:35.112Z,17.90
2018-04-26T10:28:02.761Z,19.40
2018-04-26T10:30:30.204Z,20.00
2018-04-26T10:32:59.219Z,19.90
2018-04-26T10:35:27.842Z,20.10
2018-04-26T10:37:55.648Z,20.10
2018-04-26T10:40:23.146Z,18.00
2018-04-26T10:42:55.564Z,17.80
2018-04-26T10:45:23.038Z,17.00
2018-04-26T10:47:50.851Z,17.00
2018-04-26T10:50:19.441Z,19.20
2018-04-26T10:52:49.723Z,19.10
2018-04-26T10:55:18.672Z,18.30
2018-04-26T10:57:46.094Z,16.90
2018-04-26T11:00:13.689Z,16.70
2018-04-26T11:02:41.153Z,16.70
2018-04-26T11:05:08.660Z,16.60
2018-04-26T11:07:36.836Z,17.00
2018-04-26T11:10:05.603Z,16.20
2018-04-26T11:12:33.062Z,16.20
2018-04-26T11:15:01.259Z,16.90
2018-04-26T11:17:29.844Z,16.90
2018-04-26T11:19:57.463Z,16.90
2018-04-26T11:22:24.897Z,16.30
2018-04-26T11:24:54.457Z,17.30
2018-04-26T11:27:22.102Z,17.70
2018-04-26T11:29:50.732Z,16.70
2018-04-26T11:32:18.444Z,16.70
2018-04-26T11:34:46.763Z,19.10
2018-04-26T11:37:14.198Z,19.10
2018-04-26T11:39:41.626Z,18.50
2018-04-26T11:42:09.056Z,18.40
2018-04-26T11:44:36.596Z,17.80
2018-04-26T11:47:04.011Z,17.80
2018-04-26T11:49:32.200Z,17.80
2018-04-26T11:51:59.623Z,17.80
2018-04-26T11:54:27.059Z,17.70
2018-04-26T11:56:54.490Z,18.30
2018-04-26T11:59:21.951Z,18.80
2018-04-26T12:01:49.382Z,19.10
2018-04-26T12:04:16.818Z,17.60
2018-04-26T12:06:44.240Z,16.80
2018-04-26T12:09:11.674Z,16.80
2018-04-26T12:11:39.106Z,17.80
2018-04-26T12:14:06.534Z,18.00
2018-04-26T12:16:34.734Z,18.40
2018-04-26T12:19:02.167Z,18.40
2018-04-26T12:21:30.374Z,18.80
2018-04-26T12:23:57.805Z,18.80
2018-04-26T12:26:25.994Z,18.00
2018-04-26T12:28:53.430Z,18.00
2018-04-26T12:31:21.622Z,18.90
2018-04-26T12:33:49.059Z,18.90
2018-04-26T12:36:17.250Z,19.30
2018-04-26T12:38:44.684Z,19.20
2018-04-26T12:41:12.891Z,18.20
2018-04-26T12:43:40.320Z,18.20
2018-04-26T12:46:08.526Z,16.90
2018-04-26T12:48:35.964Z,16.80
2018-04-26T12:51:03.393Z,17.10
2018-04-26T12:53:30.816Z,17.20
2018-04-26T12:55:58.255Z,17.60
2018-04-26T12:58:25.692Z,17.20
2018-04-26T13:00:53.117Z,16.60
2018-04-26T13:03:21.318Z,16.90
2018-04-26T13:05:48.755Z,16.90
2018-04-26T13:08:16.945Z,16.50
2018-04-26T13:10:44.387Z,16.50
2018-04-26T13:13:12.579Z,16.50
2018-04-26T13:15:40.006Z,16.50
2018-04-26T13:18:08.206Z,16.30
2018-04-26T13:20:35.638Z,16.30
2018-04-26T13:23:03.849Z,16.00
2018-04-26T13:25:31.283Z,16.00
2018-04-26T13:27:58.731Z,15.70
2018-04-26T13:30:26.936Z,15.90
2018-04-26T13:32:54.363Z,15.90
2018-04-26T13:35:22.561Z,15.80
2018-04-26T13:37:49.975Z,15.80
2018-04-26T13:40:17.414Z,15.90
2018-04-26T13:42:44.844Z,17.20
2018-04-26T13:45:12.288Z,17.60
2018-04-26T13:47:40.490Z,16.50
2018-04-26T13:50:07.922Z,16.50
2018-04-26T13:52:36.115Z,17.60
2018-04-26T13:55:05.660Z,17.60
2018-04-26T13:57:33.145Z,17.60
2018-04-26T14:00:00.571Z,18.10
2018-04-26T14:02:28.000Z,17.60
2018-04-26T14:04:55.442Z,17.60
2018-04-26T14:07:24.078Z,17.60
2018-04-26T14:09:51.503Z,18.10
2018-04-26T14:12:18.990Z,17.50
2018-04-26T14:14:46.422Z,17.60
2018-04-26T14:17:13.962Z,17.50
2018-04-26T14:19:42.573Z,17.40
2018-04-26T14:22:10.015Z,17.40
2018-04-26T14:24:37.434Z,17.50
2018-04-26T14:27:05.647Z,17.40
2018-04-26T14:29:33.173Z,17.30
2018-04-26T14:32:01.282Z,17.20
2018-04-26T14:34:28.715Z,17.10
2018-04-26T14:36:56.142Z,16.90
2018-04-26T14:39:24.335Z,16.30
2018-04-26T14:41:51.814Z,16.30
2018-04-26T14:44:19.234Z,16.50
2018-04-26T14:46:46.658Z,17.10
2018-04-26T14:49:14.098Z,17.10
2018-04-26T14:51:41.537Z,16.70
2018-04-26T14:54:09.735Z,16.90
2018-04-26T14:56:37.167Z,16.80
2018-04-26T14:59:04.591Z,16.70
2018-04-26T15:01:32.791Z,16.20
2018-04-26T15:04:00.216Z,16.10
2018-04-26T15:06:28.425Z,16.60
2018-04-26T15:08:55.852Z,16.60
2018-04-26T15:11:24.056Z,16.50
2018-04-26T15:13:51.483Z,16.50
2018-04-26T15:16:19.685Z,16.60
2018-04-26T15:18:47.106Z,16.60
2018-04-26T15:21:15.322Z,16.00
2018-04-26T15:23:42.746Z,16.00
2018-04-26T15:26:10.164Z,16.10
2018-04-26T15:28:37.602Z,16.60
2018-04-26T15:31:05.023Z,16.80
2018-04-26T15:33:32.458Z,16.70
2018-04-26T15:36:00.651Z,17.20
2018-04-26T15:38:28.113Z,17.20
2018-04-26T15:40:55.549Z,17.10
2018-04-26T15:43:23.984Z,16.80
2018-04-26T15:45:51.426Z,16.80
2018-04-26T15:48:19.626Z,16.70
2018-04-26T15:50:53.727Z,16.60
2018-04-26T15:53:32.834Z,16.50
2018-04-26T15:56:12.231Z,16.60
2018-04-26T15:58:52.153Z,16.60
2018-04-26T16:01:34.223Z,16.40
2018-04-26T16:04:14.270Z,16.10
2018-04-26T16:09:58.559Z,16.00
2018-04-26T16:12:57.266Z,15.80
2018-04-26T16:15:36.563Z,16.10
2018-04-26T16:18:21.495Z,16.10
2018-04-26T16:21:07.300Z,16.00
2018-04-26T16:27:16.975Z,15.80
2018-04-26T16:29:56.115Z,15.80
2018-04-26T16:32:36.354Z,15.70
2018-04-26T16:35:20.715Z,15.40
2018-04-26T16:38:06.563Z,15.50
2018-04-26T16:40:34.767Z,15.50
2018-04-26T16:43:02.225Z,15.40
2018-04-26T16:45:30.398Z,15.30
2018-04-26T16:47:57.834Z,15.20
2018-04-26T16:50:26.040Z,15.00
2018-04-26T16:52:53.466Z,15.00
2018-04-26T16:55:21.671Z,14.80
2018-04-26T16:57:49.106Z,14.80
2018-04-26T17:00:16.542Z,14.80
2018-04-26T17:02:43.966Z,14.70
2018-04-26T17:05:11.402Z,14.70
2018-04-26T17:07:38.829Z,14.70
2018-04-26T17:10:06.262Z,14.60
2018-04-26T17:12:34.461Z,14.60
2018-04-26T17:15:01.902Z,14.50
2018-04-26T17:17:30.102Z,14.50
2018-04-26T17:19:58.372Z,14.40
2018-04-26T17:22:25.818Z,14.40
2018-04-26T17:24:54.037Z,14.30
2018-04-26T17:27:22.219Z,14.20
2018-04-26T17:29:50.430Z,14.20
2018-04-26T17:32:21.541Z,14.20
2018-04-26T17:34:50.138Z,14.00
2018-04-26T17:37:17.495Z,14.00
2018-04-26T17:39:44.930Z,14.00
2018-04-26T17:42:12.368Z,13.80
2018-04-26T17:44:39.798Z,13.80
2018-04-26T17:47:07.262Z,13.70
2018-04-26T17:49:34.702Z,13.70
2018-04-26T17:52:02.142Z,13.70
2018-04-26T17:54:30.362Z,13.70
2018-04-26T17:56:57.806Z,13.60
2018-04-26T17:59:25.238Z,13.60
2018-04-26T18:01:52.679Z,13.50
2018-04-26T18:04:20.123Z,13.40
2018-04-26T18:06:47.562Z,13.30
2018-04-26T18:09:14.998Z,13.20
2018-04-26T18:11:42.434Z,13.20
2018-04-26T18:14:09.871Z,13.20
2018-04-26T18:16:37.314Z,13.10
2018-04-26T18:19:04.783Z,13.10
2018-04-26T18:21:32.218Z,13.00
2018-04-26T18:23:59.648Z,13.00
2018-04-26T18:26:27.074Z,12.90
2018-04-26T18:28:54.543Z,12.90
2018-04-26T18:31:21.979Z,12.70
2018-04-26T18:33:49.421Z,12.70
2018-04-26T18:36:16.862Z,12.60
2018-04-26T18:38:44.297Z,12.60
2018-04-26T18:41:12.507Z,12.50
2018-04-26T18:43:39.939Z,12.50
2018-04-26T18:46:08.141Z,12.30
2018-04-26T18:48:36.211Z,12.30
2018-04-26T18:51:03.751Z,12.20
2018-04-26T18:53:31.082Z,12.10
2018-04-26T18:55:58.526Z,12.00
2018-04-26T18:58:25.965Z,11.90
2018-04-26T19:00:53.390Z,11.90
2018-04-26T19:03:20.823Z,11.80
2018-04-26T19:05:48.251Z,11.70
2018-04-26T19:08:15.697Z,11.60
2018-04-26T19:10:43.122Z,11.50
2018-04-26T19:13:10.578Z,11.60
2018-04-26T19:15:38.063Z,11.70
2018-04-26T19:18:06.186Z,11.50
2018-04-26T19:20:33.602Z,11.50
2018-04-26T19:23:01.043Z,11.40
2018-04-26T19:25:28.476Z,11.40
2018-04-26T19:27:55.973Z,11.30
2018-04-26T19:30:23.343Z,11.20
2018-04-26T19:32:51.542Z,11.10
2018-04-26T19:35:18.971Z,11.10
2018-04-26T19:37:46.415Z,10.90
2018-04-26T19:40:13.841Z,10.70
2018-04-26T19:42:41.276Z,10.40
2018-04-26T19:45:09.478Z,10.20
2018-04-26T19:47:36.918Z,10.20
2018-04-26T19:50:04.365Z,10.10
2018-04-26T19:52:31.808Z,10.00
2018-04-26T19:54:59.237Z,10.10
2018-04-26T19:57:27.459Z,10.00
2018-04-26T19:59:54.890Z,10.00
2018-04-26T20:02:22.323Z,10.00
2018-04-26T20:04:50.543Z,10.00
2018-04-26T20:07:17.985Z,10.00
2018-04-26T20:09:45.418Z,9.90
2018-04-26T20:12:12.843Z,9.80
2018-04-26T20:14:40.278Z,9.70
2018-04-26T20:17:07.716Z,9.50
2018-04-26T20:19:35.157Z,9.30
2018-04-26T20:22:02.582Z,9.20
2018-04-26T20:24:30.012Z,9.10
2018-04-26T20:26:57.688Z,9.10
2018-04-26T20:29:25.112Z,9.00
2018-04-26T20:31:53.312Z,8.90
2018-04-26T20:34:20.777Z,8.90
2018-04-26T20:36:48.208Z,8.90
2018-04-26T20:39:15.646Z,8.90
2018-04-26T20:41:56.084Z,8.90
2018-04-26T20:44:36.123Z,8.90
2018-04-26T20:47:04.339Z,9.00
2018-04-26T20:49:32.038Z,9.00
2018-04-26T20:51:59.658Z,8.90
2018-04-26T20:54:27.175Z,8.90
2018-04-26T20:56:55.419Z,8.90
2018-04-26T20:59:22.979Z,8.90
2018-04-26T21:01:50.467Z,8.80
2018-04-26T21:04:18.730Z,8.70
2018-04-26T21:06:46.216Z,8.70
2018-04-26T21:09:13.732Z,8.60
2018-04-26T21:11:41.252Z,8.60
2018-04-26T21:14:08.792Z,8.60
2018-04-26T21:16:37.017Z,8.50
2018-04-26T21:19:04.545Z,8.50
2018-04-26T21:21:32.043Z,8.50
2018-04-26T21:23:59.508Z,8.50
2018-04-26T21:26:26.982Z,8.50
2018-04-26T21:28:55.222Z,8.40
2018-04-26T21:31:22.703Z,8.40
2018-04-26T21:33:50.172Z,8.30
2018-04-26T21:36:18.444Z,8.30
2018-04-26T21:38:46.463Z,8.30
2018-04-26T21:41:13.924Z,8.20
2018-04-26T21:43:41.350Z,8.20
2018-04-26T21:46:08.848Z,8.10
2018-04-26T21:48:36.289Z,8.10
2018-04-26T21:51:09.387Z,8.10
2018-04-26T21:53:42.320Z,8.00
2018-04-26T21:56:16.137Z,7.90
2018-04-26T21:58:49.290Z,7.90
2018-04-26T22:01:22.476Z,7.90
2018-04-26T22:03:55.956Z,7.80
2018-04-26T22:06:23.443Z,7.90
2018-04-26T22:08:51.722Z,7.90
2018-04-26T22:11:19.187Z,7.90
2018-04-26T22:13:47.374Z,7.90
2018-04-26T22:16:14.807Z,7.90
2018-04-26T22:18:42.227Z,7.90
2018-04-26T22:21:09.668Z,8.00
2018-04-26T22:23:37.098Z,8.00
2018-04-26T22:26:05.351Z,7.90
2018-04-26T22:28:32.775Z,7.90
2018-04-26T22:31:00.221Z,7.80
2018-04-26T22:33:27.643Z,7.60
2018-04-26T22:35:55.087Z,7.60
2018-04-26T22:38:22.618Z,7.50
2018-04-26T22:40:50.060Z,7.50
2018-04-26T22:43:17.495Z,7.50
2018-04-26T22:45:44.954Z,7.40
2018-04-26T22:48:12.386Z,7.40
2018-04-26T22:50:40.582Z,7.30
2018-04-26T22:53:08.344Z,7.30
2018-04-26T22:55:35.777Z,7.20
2018-04-26T22:58:03.216Z,7.30
2018-04-26T23:00:31.432Z,7.10
2018-04-26T23:02:58.870Z,7.10
2018-04-26T23:05:26.303Z,7.10
2018-04-26T23:07:54.518Z,7.00
2018-04-26T23:10:22.194Z,6.90
2018-04-26T23:12:49.634Z,6.90
2018-04-26T23:15:17.059Z,6.90
2018-04-26T23:17:45.471Z,6.90
2018-04-26T23:20:12.955Z,6.90
2018-04-26T23:22:40.459Z,6.90
2018-04-26T23:25:08.801Z,6.80
2018-04-26T23:27:36.320Z,6.80
2018-04-26T23:30:03.788Z,6.70
2018-04-26T23:32:31.226Z,6.70
2018-04-26T23:34:58.648Z,6.70
2018-04-26T23:37:26.071Z,6.60
2018-04-26T23:39:53.508Z,6.60
2018-04-26T23:42:20.950Z,6.70
2018-04-26T23:44:48.379Z,6.60
2018-04-26T23:47:16.578Z,6.60
2018-04-26T23:49:43.996Z,6.50
2018-04-26T23:52:11.434Z,6.60
2018-04-26T23:54:38.867Z,6.60
2018-04-26T23:57:06.286Z,6.50
2018-04-26T23:59:34.482Z,6.40
